Time;durP1;ratioP1;P1;durP2;ratioP2;P2;SDS_P1;SDS_P2;PMS_P1;PMS_P2;Temp;Humidity;BMP_temperature;BMP_pressure;BME280_temperature;BME280_humidity;BME280_pressure;Samples;Min_cycle;Max_cycle;Signal;HPM_P1;HPM_P2
2022/01/16 00:04:05;;;;;;;19.37;12.03;;;4.70;99.90;;;;;;5015927;28;20225;-51
2022/01/16 00:04:45;;;;;;;20.00;12.33;;;4.80;99.90;;;;;;5041188;28;20209;-50
2022/01/16 00:07:12;;;;;;;19.23;12.97;;;4.70;99.90;;;;;;5035530;28;20223;-49
2022/01/16 00:09:39;;;;;;;19.47;13.00;;;4.70;99.90;;;;;;5028538;28;20581;-50
2022/01/16 00:12:10;;;;;;;20.77;12.93;;;4.70;99.90;;;;;;5037492;28;20264;-49
2022/01/16 00:14:37;;;;;;;21.87;12.70;;;4.80;99.90;;;;;;5027855;28;20201;-49
2022/01/16 00:17:05;;;;;;;18.77;12.73;;;4.80;99.90;;;;;;5042919;28;20201;-49
2022/01/16 00:19:32;;;;;;;23.10;13.17;;;4.70;99.90;;;;;;5039514;28;20280;-49
2022/01/16 00:21:59;;;;;;;21.70;12.40;;;4.60;99.90;;;;;;5022462;28;20665;-48
2022/01/16 00:24:26;;;;;;;20.97;13.53;;;4.70;99.90;;;;;;5026515;28;20220;-49
2022/01/16 00:26:53;;;;;;;19.53;12.57;;;4.70;99.90;;;;;;5052089;28;20293;-50
2022/01/16 00:29:21;;;;;;;24.17;13.70;;;4.70;99.90;;;;;;5034695;28;20221;-49
2022/01/16 00:31:48;;;;;;;22.87;13.47;;;4.70;99.90;;;;;;5036496;28;20250;-49
2022/01/16 00:34:15;;;;;;;22.17;13.83;;;4.70;99.90;;;;;;5023900;28;21208;-49
2022/01/16 00:36:41;;;;;;;26.13;14.00;;;4.70;99.90;;;;;;5038181;28;20213;-49
2022/01/16 00:39:09;;;;;;;23.97;14.63;;;4.70;99.90;;;;;;5033910;28;20687;-49
2022/01/16 00:41:36;;;;;;;29.87;14.87;;;4.60;99.90;;;;;;5019892;28;20220;-49
2022/01/16 00:44:04;;;;;;;27.97;14.13;;;4.70;99.90;;;;;;5047286;28;20213;-49
2022/01/16 00:46:32;;;;;;;28.83;14.60;;;4.60;99.90;;;;;;5031181;28;20745;-49
2022/01/16 00:48:59;;;;;;;27.70;14.47;;;4.60;99.90;;;;;;5043203;28;23640;-49
2022/01/16 00:51:26;;;;;;;24.17;14.10;;;4.50;99.90;;;;;;5038152;28;20213;-48
2022/01/16 00:53:53;;;;;;;32.20;13.97;;;4.50;99.90;;;;;;5031579;28;20907;-49
2022/01/16 00:56:21;;;;;;;28.27;15.00;;;4.50;99.90;;;;;;5023313;28;20307;-48
2022/01/16 00:58:48;;;;;;;29.03;15.70;;;4.50;99.90;;;;;;5035420;28;21591;-49
2022/01/16 01:01:15;;;;;;;30.90;15.57;;;4.50;99.90;;;;;;5033290;28;20585;-48
2022/01/16 01:03:43;;;;;;;31.27;15.90;;;4.40;99.90;;;;;;5049763;28;20224;-49
2022/01/16 01:06:10;;;;;;;31.17;16.80;;;4.50;99.90;;;;;;5028705;28;20211;-49
2022/01/16 01:08:37;;;;;;;29.43;15.80;;;4.50;99.90;;;;;;5035681;28;20250;-49
2022/01/16 01:11:08;;;;;;;33.20;16.27;;;4.50;99.90;;;;;;5030515;28;20209;-49
2022/01/16 01:13:54;;;;;;;34.77;16.60;;;4.50;99.90;;;;;;5033508;28;20283;-49
2022/01/16 01:16:22;;;;;;;27.03;15.83;;;4.60;99.90;;;;;;5044680;28;20208;-49
2022/01/16 01:18:50;;;;;;;32.33;17.43;;;4.50;99.90;;;;;;5031070;28;20291;-49
2022/01/16 01:21:27;;;;;;;36.73;17.77;;;4.50;99.90;;;;;;5041858;28;20439;-50
2022/01/16 01:23:54;;;;;;;33.73;18.17;;;4.50;99.90;;;;;;5037519;28;20511;-49
2022/01/16 01:26:26;;;;;;;32.43;17.00;;;4.40;99.90;;;;;;5029884;28;20228;-49
2022/01/16 01:28:53;;;;;;;29.90;15.47;;;4.40;99.90;;;;;;5037767;28;20220;-49
2022/01/16 01:31:20;;;;;;;28.33;15.47;;;4.50;99.90;;;;;;5026894;28;20211;-48
2022/01/16 01:33:47;;;;;;;26.47;13.50;;;4.50;99.90;;;;;;5034106;28;20200;-49
2022/01/16 01:36:15;;;;;;;25.30;13.73;;;4.50;99.90;;;;;;5040787;28;20764;-49
2022/01/16 01:38:42;;;;;;;29.50;14.87;;;4.50;99.90;;;;;;5030534;28;20744;-49
2022/01/16 01:41:09;;;;;;;29.93;15.07;;;4.50;99.90;;;;;;5036783;28;20207;-49
2022/01/16 01:51:50;;;;;;;28.93;14.90;;;4.60;99.90;;;;;;5030642;28;20232;-49
2022/01/16 01:54:17;;;;;;;28.60;14.37;;;4.60;99.90;;;;;;5035665;28;20804;-48
2022/01/16 01:56:44;;;;;;;26.23;14.93;;;4.50;99.90;;;;;;5019564;28;20217;-49
2022/01/16 01:59:12;;;;;;;30.50;14.57;;;4.50;99.90;;;;;;5046684;28;20205;-49
2022/01/16 02:01:39;;;;;;;31.43;15.00;;;4.50;99.90;;;;;;5043403;28;20197;-49
2022/01/16 02:04:06;;;;;;;28.10;15.00;;;4.50;99.90;;;;;;5024001;28;20207;-49
2022/01/16 02:06:34;;;;;;;31.10;16.00;;;4.60;99.90;;;;;;5030815;28;20583;-49
2022/01/16 02:09:06;;;;;;;29.17;15.63;;;4.60;99.90;;;;;;5047600;28;20593;-49
2022/01/16 02:11:33;;;;;;;28.93;15.50;;;4.60;99.90;;;;;;5035256;28;20584;-49
2022/01/16 02:14:08;;;;;;;30.00;16.47;;;4.60;99.90;;;;;;5030054;28;20223;-49
2022/01/16 02:28:02;;;;;;;34.60;16.10;;;4.60;99.90;;;;;;5027495;28;20235;-49
2022/01/16 02:36:04;;;;;;;28.33;15.03;;;4.70;99.90;;;;;;5028973;28;20764;-49
2022/01/16 02:38:33;;;;;;;32.17;17.00;;;4.70;99.90;;;;;;5043747;28;20201;-48
2022/01/16 02:41:03;;;;;;;25.00;14.87;;;4.60;99.90;;;;;;5030880;28;20238;-49
2022/01/16 02:43:33;;;;;;;26.53;14.13;;;4.60;99.90;;;;;;5028596;28;20274;-50
2022/01/16 02:48:54;;;;;;;26.17;14.33;;;4.50;99.90;;;;;;5040543;28;20224;-49
2022/01/16 02:51:23;;;;;;;23.33;13.47;;;4.50;99.90;;;;;;5044039;28;20204;-48
2022/01/16 02:53:52;;;;;;;26.67;15.13;;;4.40;99.90;;;;;;5026443;28;20215;-48
2022/01/16 02:56:20;;;;;;;27.77;15.70;;;4.40;99.90;;;;;;5036470;28;20208;-48
2022/01/16 02:58:49;;;;;;;20.90;12.67;;;4.40;99.90;;;;;;5036223;28;20556;-48
2022/01/16 03:01:17;;;;;;;23.23;13.47;;;4.40;99.90;;;;;;5028954;28;20378;-50
2022/01/16 03:03:44;;;;;;;27.37;15.10;;;4.30;99.90;;;;;;5028510;28;20298;-48
2022/01/16 03:06:11;;;;;;;25.57;15.03;;;4.30;99.90;;;;;;5035630;28;20216;-49
2022/01/16 03:08:38;;;;;;;26.80;14.90;;;4.30;99.90;;;;;;5047848;28;20261;-49
2022/01/16 03:11:15;;;;;;;25.20;14.43;;;4.30;99.90;;;;;;5037601;28;21093;-49
2022/01/16 03:13:46;;;;;;;27.73;15.27;;;4.30;99.90;;;;;;5025941;28;20993;-48
2022/01/16 03:16:13;;;;;;;27.93;15.23;;;4.20;99.90;;;;;;5031354;28;20278;-48
2022/01/16 03:24:09;;;;;;;28.20;15.10;;;4.30;99.90;;;;;;5036276;28;20207;-49
2022/01/16 03:26:37;;;;;;;29.40;16.00;;;4.20;99.90;;;;;;5045230;28;20729;-49
2022/01/16 03:29:04;;;;;;;27.27;15.80;;;4.30;99.90;;;;;;5015577;28;20931;-49
2022/01/16 03:31:31;;;;;;;26.60;14.53;;;4.30;99.90;;;;;;5019958;28;20217;-48
2022/01/16 03:33:58;;;;;;;28.97;15.13;;;4.20;99.90;;;;;;5041255;28;20204;-49
2022/01/16 03:36:25;;;;;;;31.57;16.03;;;4.20;99.90;;;;;;5039911;28;20221;-49
2022/01/16 03:38:52;;;;;;;30.37;15.67;;;4.20;99.90;;;;;;5044631;28;20475;-49
2022/01/16 03:41:19;;;;;;;30.13;15.77;;;4.20;99.90;;;;;;5035650;28;20200;-50
2022/01/16 03:43:47;;;;;;;32.30;17.03;;;4.20;99.90;;;;;;5015421;28;20224;-49
2022/01/16 03:46:14;;;;;;;32.80;16.47;;;4.20;99.90;;;;;;5030046;28;21089;-49
2022/01/16 03:48:41;;;;;;;31.33;16.77;;;4.20;99.90;;;;;;5037475;28;20221;-48
2022/01/16 03:51:08;;;;;;;30.97;16.50;;;4.20;99.90;;;;;;5015543;28;20211;-50
2022/01/16 03:53:34;;;;;;;31.83;16.93;;;4.20;99.90;;;;;;5038319;28;20231;-49
2022/01/16 03:56:01;;;;;;;35.17;18.30;;;4.10;99.90;;;;;;5037420;28;20220;-49
2022/01/16 03:58:28;;;;;;;34.03;17.73;;;4.10;99.90;;;;;;5030985;28;20223;-48
2022/01/16 04:00:56;;;;;;;41.13;21.13;;;4.10;99.90;;;;;;5038585;28;20199;-49
2022/01/16 04:03:23;;;;;;;37.67;19.53;;;4.10;99.90;;;;;;5027486;28;20235;-48
2022/01/16 04:05:50;;;;;;;42.83;21.60;;;4.10;99.90;;;;;;5043197;28;20200;-49
2022/01/16 04:08:17;;;;;;;37.63;19.27;;;4.10;99.90;;;;;;5024248;28;20207;-49
2022/01/16 04:10:44;;;;;;;40.07;21.30;;;4.10;99.90;;;;;;5033781;28;20229;-48
2022/01/16 04:13:12;;;;;;;42.67;20.27;;;4.10;99.90;;;;;;5042260;28;20784;-49
2022/01/16 04:15:38;;;;;;;36.57;18.63;;;4.10;99.90;;;;;;5037117;28;20227;-49
2022/01/16 04:18:07;;;;;;;32.73;18.27;;;4.10;99.90;;;;;;5033419;28;20223;-49
2022/01/16 04:20:35;;;;;;;32.17;16.70;;;4.10;99.90;;;;;;5034389;28;20263;-49
2022/01/16 04:23:04;;;;;;;32.00;17.03;;;3.90;99.90;;;;;;5029247;28;21090;-48
2022/01/16 04:25:31;;;;;;;31.27;16.43;;;3.90;99.90;;;;;;5045841;28;20934;-48
2022/01/16 04:27:58;;;;;;;29.37;15.93;;;3.90;99.90;;;;;;5041788;28;20251;-48
2022/01/16 04:30:25;;;;;;;30.17;14.70;;;3.80;99.90;;;;;;5031641;28;20233;-49
2022/01/16 04:32:52;;;;;;;30.53;15.80;;;3.80;99.90;;;;;;5028007;28;20254;-49
2022/01/16 04:35:20;;;;;;;35.27;16.87;;;3.70;99.90;;;;;;5011892;28;20211;-48
2022/01/16 04:37:47;;;;;;;33.07;17.63;;;3.70;99.90;;;;;;5036626;28;21745;-48
2022/01/16 04:40:15;;;;;;;33.13;16.97;;;3.70;99.90;;;;;;5044754;28;20204;-48
2022/01/16 04:45:28;;;;;;;35.03;16.57;;;3.60;99.90;;;;;;5036638;28;20253;-48
2022/01/16 04:47:55;;;;;;;41.17;18.13;;;3.60;99.90;;;;;;5021631;28;20220;-48
2022/01/16 04:50:25;;;;;;;35.37;18.13;;;3.50;99.90;;;;;;5043312;28;20989;-48
2022/01/16 04:52:52;;;;;;;39.80;19.47;;;3.60;99.90;;;;;;5023812;28;20238;-48
2022/01/16 04:55:22;;;;;;;44.20;19.40;;;3.50;99.90;;;;;;5049890;28;20316;-48
2022/01/16 04:57:49;;;;;;;40.07;20.20;;;3.50;99.90;;;;;;5023084;28;21211;-48
2022/01/16 05:00:17;;;;;;;42.73;20.63;;;3.50;99.90;;;;;;5041104;28;20206;-48
2022/01/16 05:02:44;;;;;;;44.13;20.93;;;3.50;99.90;;;;;;5017317;28;20235;-48
2022/01/16 05:05:12;;;;;;;42.80;19.23;;;3.50;99.90;;;;;;5043087;28;20890;-49
2022/01/16 05:07:41;;;;;;;48.03;22.17;;;3.50;99.90;;;;;;5036831;28;20200;-48
2022/01/16 05:10:09;;;;;;;46.03;21.77;;;3.50;99.90;;;;;;5040457;28;20312;-49
2022/01/16 05:12:39;;;;;;;47.90;21.80;;;3.50;99.90;;;;;;5043434;28;20350;-48
2022/01/16 05:17:51;;;;;;;45.50;19.87;;;3.50;99.90;;;;;;5041092;28;20921;-48
2022/01/16 05:20:19;;;;;;;53.57;23.67;;;3.60;99.90;;;;;;5024411;28;20218;-48
2022/01/16 05:22:47;;;;;;;56.73;22.47;;;3.60;99.90;;;;;;5034741;28;20242;-48
2022/01/16 05:25:16;;;;;;;51.67;22.27;;;3.50;99.90;;;;;;5041958;28;21526;-48
2022/01/16 05:27:44;;;;;;;43.50;20.63;;;3.60;99.90;;;;;;5049451;28;20199;-48
2022/01/16 05:30:12;;;;;;;47.00;22.67;;;3.60;99.90;;;;;;5026198;28;23699;-48
2022/01/16 05:32:39;;;;;;;62.50;23.53;;;3.60;99.90;;;;;;5036368;28;20247;-48
2022/01/16 05:35:07;;;;;;;50.50;22.27;;;3.60;99.90;;;;;;5028906;28;20587;-48
2022/01/16 05:37:34;;;;;;;50.37;22.63;;;3.60;99.90;;;;;;5033531;28;20213;-48
2022/01/16 05:40:03;;;;;;;57.03;22.97;;;3.60;99.90;;;;;;5031726;28;20215;-48
2022/01/16 05:42:32;;;;;;;55.73;23.10;;;3.60;99.90;;;;;;5045776;28;20596;-48
2022/01/16 05:44:59;;;;;;;45.37;22.23;;;3.60;99.90;;;;;;5038154;28;20223;-48
2022/01/16 05:47:25;;;;;;;53.23;24.43;;;3.60;99.90;;;;;;5050919;28;20211;-48
2022/01/16 05:49:52;;;;;;;55.73;23.77;;;3.60;99.90;;;;;;5005341;28;20226;-48
2022/01/16 05:52:19;;;;;;;56.27;24.27;;;3.60;99.90;;;;;;5049575;28;20605;-48
2022/01/16 05:54:46;;;;;;;59.77;24.37;;;3.60;99.90;;;;;;5041974;28;20786;-48
2022/01/16 05:57:14;;;;;;;61.23;24.77;;;3.60;99.90;;;;;;5036415;28;20197;-48
2022/01/16 05:59:41;;;;;;;61.77;23.80;;;3.60;99.90;;;;;;5034580;28;20204;-48
2022/01/16 06:02:08;;;;;;;57.40;23.70;;;3.60;99.90;;;;;;5042733;28;20951;-48
2022/01/16 06:04:35;;;;;;;55.63;24.60;;;3.60;99.90;;;;;;5027047;28;20213;-48
2022/01/16 06:07:01;;;;;;;56.47;24.10;;;3.60;99.90;;;;;;5034238;28;20208;-49
2022/01/16 06:09:28;;;;;;;54.97;23.30;;;3.60;99.90;;;;;;5044218;28;20338;-49
2022/01/16 06:11:57;;;;;;;60.10;24.23;;;3.70;99.90;;;;;;5005324;28;20266;-48
2022/01/16 06:14:25;;;;;;;57.00;22.60;;;3.70;99.90;;;;;;5036946;28;20216;-48
2022/01/16 06:16:52;;;;;;;55.20;22.93;;;3.70;99.90;;;;;;5030402;28;20220;-48
2022/01/16 06:19:19;;;;;;;59.10;23.30;;;3.60;99.90;;;;;;5039025;28;20204;-48
2022/01/16 06:21:47;;;;;;;57.33;22.63;;;3.60;99.90;;;;;;5010934;28;20224;-48
2022/01/16 06:24:14;;;;;;;49.13;22.03;;;3.60;99.90;;;;;;5047671;28;20197;-48
2022/01/16 06:26:41;;;;;;;51.27;22.70;;;3.60;99.90;;;;;;5035276;28;20711;-49
2022/01/16 06:29:08;;;;;;;58.03;23.10;;;3.70;99.90;;;;;;5025736;28;20761;-48
2022/01/16 06:31:37;;;;;;;55.47;22.43;;;3.70;99.90;;;;;;5039990;28;20227;-48
2022/01/16 06:34:06;;;;;;;51.73;22.70;;;3.70;99.90;;;;;;5007135;28;20511;-48
2022/01/16 06:36:34;;;;;;;46.70;21.17;;;3.70;99.90;;;;;;5034342;28;20224;-48
2022/01/16 06:39:02;;;;;;;54.27;21.47;;;3.70;99.90;;;;;;5033670;28;20232;-48
2022/01/16 06:41:29;;;;;;;58.07;24.43;;;3.70;99.90;;;;;;5027016;28;20212;-48
2022/01/16 06:43:55;;;;;;;50.97;22.33;;;3.80;99.90;;;;;;5045809;28;20215;-48
2022/01/16 06:46:22;;;;;;;50.87;21.80;;;3.80;99.90;;;;;;5043663;28;20223;-51
2022/01/16 06:48:51;;;;;;;51.33;22.77;;;3.80;99.90;;;;;;5032645;28;20697;-50
2022/01/16 06:51:19;;;;;;;58.77;24.50;;;3.80;99.90;;;;;;5025494;28;20702;-51
2022/01/16 06:53:46;;;;;;;51.83;21.90;;;3.80;99.90;;;;;;5052515;28;20221;-50
2022/01/16 06:56:13;;;;;;;57.83;23.27;;;3.80;99.90;;;;;;5034064;28;20217;-51
2022/01/16 06:58:40;;;;;;;57.37;23.67;;;3.80;99.90;;;;;;5031750;28;20217;-51
2022/01/16 07:01:07;;;;;;;57.43;24.07;;;3.80;99.90;;;;;;5010216;28;20197;-51
2022/01/16 07:03:34;;;;;;;54.53;23.07;;;3.80;99.90;;;;;;5017176;28;20232;-51
2022/01/16 07:06:02;;;;;;;59.93;24.63;;;3.90;99.90;;;;;;5022184;28;20204;-51
2022/01/16 07:08:29;;;;;;;53.40;24.70;;;3.80;99.90;;;;;;5023967;28;21044;-51
2022/01/16 07:10:58;;;;;;;62.60;23.60;;;3.80;99.90;;;;;;5046362;28;20228;-51
2022/01/16 07:13:25;;;;;;;56.57;23.47;;;3.80;99.90;;;;;;5034511;28;20273;-51
2022/01/16 07:15:52;;;;;;;55.47;23.17;;;3.80;99.90;;;;;;5016709;28;20299;-51
2022/01/16 07:18:20;;;;;;;55.40;22.93;;;3.80;99.90;;;;;;5029822;28;20216;-51
2022/01/16 07:20:47;;;;;;;49.93;23.93;;;3.80;99.90;;;;;;5027664;28;20208;-51
2022/01/16 07:23:17;;;;;;;61.07;23.13;;;3.80;99.90;;;;;;5027572;28;20235;-51
2022/01/16 07:25:45;;;;;;;53.13;22.20;;;3.80;99.90;;;;;;5045330;28;20204;-50
2022/01/16 07:28:12;;;;;;;56.73;22.07;;;3.80;99.90;;;;;;5046759;28;20205;-51
2022/01/16 07:30:39;;;;;;;50.27;22.30;;;3.80;99.90;;;;;;5013746;28;20232;-51
2022/01/16 07:33:08;;;;;;;56.17;22.93;;;3.90;99.90;;;;;;5022939;28;20242;-51
2022/01/16 07:35:36;;;;;;;56.10;23.97;;;3.80;99.90;;;;;;5030320;28;20227;-50
2022/01/16 07:38:04;;;;;;;66.50;25.33;;;3.90;99.90;;;;;;5005301;28;20215;-51
2022/01/16 07:40:33;;;;;;;53.80;22.93;;;3.90;99.90;;;;;;5032512;28;20211;-52
2022/01/16 07:43:00;;;;;;;59.80;23.00;;;3.90;99.90;;;;;;5030398;28;22268;-51
2022/01/16 07:45:28;;;;;;;51.53;23.37;;;3.90;99.90;;;;;;5027330;28;20213;-51
2022/01/16 07:47:54;;;;;;;52.03;23.53;;;3.80;99.90;;;;;;5039183;28;20209;-50
2022/01/16 07:50:22;;;;;;;49.90;22.13;;;3.80;99.90;;;;;;5043165;28;20224;-52
2022/01/16 07:52:49;;;;;;;51.83;23.97;;;4.00;99.90;;;;;;5017787;28;20700;-52
2022/01/16 07:55:17;;;;;;;51.00;23.50;;;3.90;99.90;;;;;;5007192;28;20212;-51
2022/01/16 07:57:45;;;;;;;58.00;23.97;;;3.90;99.90;;;;;;5048029;28;20211;-51
2022/01/16 08:00:13;;;;;;;60.50;24.27;;;3.90;99.90;;;;;;5021351;28;20211;-51
2022/01/16 08:02:39;;;;;;;52.90;22.93;;;3.90;99.90;;;;;;5025515;28;20239;-51
2022/01/16 08:05:07;;;;;;;51.80;21.53;;;3.90;99.90;;;;;;5034711;28;20213;-52
2022/01/16 08:07:34;;;;;;;58.13;23.73;;;3.90;99.90;;;;;;5000045;28;20254;-51
2022/01/16 08:10:01;;;;;;;55.70;23.77;;;3.90;99.90;;;;;;5010872;28;20592;-53
2022/01/16 08:12:28;;;;;;;56.83;23.73;;;4.00;99.90;;;;;;5020914;28;21541;-51
2022/01/16 08:14:56;;;;;;;61.90;24.70;;;4.20;99.90;;;;;;5027077;28;20208;-51
2022/01/16 08:17:23;;;;;;;59.43;23.83;;;4.00;99.90;;;;;;5027186;28;20219;-51
2022/01/16 08:19:50;;;;;;;53.23;23.90;;;4.00;99.90;;;;;;5035007;28;20676;-53
2022/01/16 08:22:16;;;;;;;52.37;24.43;;;4.00;99.90;;;;;;5026600;28;20245;-50
2022/01/16 08:24:43;;;;;;;61.20;25.37;;;4.00;99.90;;;;;;5020023;28;20356;-51
2022/01/16 08:27:10;;;;;;;64.90;24.33;;;4.00;99.90;;;;;;5038467;28;21015;-51
2022/01/16 08:29:37;;;;;;;62.70;26.10;;;4.00;99.90;;;;;;5024842;28;20306;-51
2022/01/16 08:32:07;;;;;;;58.90;25.77;;;4.10;99.90;;;;;;5037029;28;20240;-51
2022/01/16 08:34:34;;;;;;;63.40;24.90;;;4.10;99.90;;;;;;5024756;28;20216;-51
2022/01/16 08:37:02;;;;;;;58.07;25.17;;;4.10;99.90;;;;;;5034509;28;20217;-54
2022/01/16 08:39:28;;;;;;;62.80;24.20;;;4.10;99.90;;;;;;5022286;28;20809;-48
2022/01/16 08:41:55;;;;;;;59.00;25.40;;;4.10;99.90;;;;;;5043053;28;20230;-49
2022/01/16 08:44:23;;;;;;;53.53;23.47;;;4.10;99.90;;;;;;5037010;28;20208;-48
2022/01/16 08:46:51;;;;;;;58.87;25.30;;;4.10;99.90;;;;;;5027483;28;20226;-48
2022/01/16 08:49:19;;;;;;;64.47;25.20;;;4.10;99.90;;;;;;5037915;28;20196;-47
2022/01/16 08:51:46;;;;;;;56.67;24.03;;;4.10;99.90;;;;;;5022098;28;21642;-48
2022/01/16 08:54:13;;;;;;;55.50;24.97;;;4.10;99.90;;;;;;5037241;28;21511;-49
2022/01/16 08:56:40;;;;;;;60.17;24.53;;;4.10;99.90;;;;;;5020476;28;20215;-48
2022/01/16 08:59:06;;;;;;;57.03;23.83;;;4.10;99.90;;;;;;5051211;28;20211;-51
2022/01/16 09:01:33;;;;;;;55.47;23.93;;;4.20;99.90;;;;;;5006134;28;20990;-51
2022/01/16 09:04:00;;;;;;;61.87;24.83;;;4.10;99.90;;;;;;5034815;28;20213;-51
2022/01/16 09:06:29;;;;;;;67.03;25.93;;;4.10;99.90;;;;;;5012727;28;20250;-51
2022/01/16 09:08:56;;;;;;;52.30;23.00;;;4.10;99.90;;;;;;5034629;28;20319;-51
2022/01/16 09:11:25;;;;;;;58.80;24.43;;;4.20;99.90;;;;;;5022006;28;21267;-53
2022/01/16 09:13:52;;;;;;;54.57;23.53;;;4.10;99.90;;;;;;5026164;28;20369;-51
2022/01/16 09:16:20;;;;;;;62.03;23.50;;;4.20;99.90;;;;;;5030414;28;20210;-51
2022/01/16 09:18:47;;;;;;;60.30;25.30;;;4.20;99.90;;;;;;5021640;28;20212;-51
2022/01/16 09:21:15;;;;;;;56.40;25.20;;;4.20;99.90;;;;;;5009504;28;20224;-51
2022/01/16 09:23:43;;;;;;;58.53;23.73;;;4.20;99.90;;;;;;5019585;28;20239;-51
2022/01/16 09:26:10;;;;;;;58.20;24.27;;;4.20;99.90;;;;;;5015716;28;20216;-51
2022/01/16 09:28:37;;;;;;;62.27;24.00;;;4.20;99.90;;;;;;5021782;28;20215;-51
2022/01/16 09:31:05;;;;;;;63.77;24.03;;;4.20;99.90;;;;;;5043838;28;20238;-51
2022/01/16 09:33:32;;;;;;;66.43;23.43;;;4.20;99.90;;;;;;5029649;28;20232;-51
2022/01/16 09:35:59;;;;;;;63.20;25.10;;;4.20;99.90;;;;;;5031893;28;20215;-46
2022/01/16 09:38:26;;;;;;;62.33;25.30;;;4.30;99.90;;;;;;5028995;28;20218;-46
2022/01/16 09:40:56;;;;;;;52.27;23.33;;;4.30;99.90;;;;;;5022717;28;20212;-46
2022/01/16 09:43:24;;;;;;;57.53;22.70;;;4.30;99.90;;;;;;5035409;28;20225;-46
2022/01/16 09:45:51;;;;;;;57.43;23.40;;;4.30;99.90;;;;;;5030402;28;20203;-46
2022/01/16 09:48:19;;;;;;;56.63;24.37;;;4.30;99.90;;;;;;5009813;28;20247;-47
2022/01/16 09:50:46;;;;;;;65.27;24.07;;;4.40;99.90;;;;;;5006092;28;20947;-46
2022/01/16 09:53:13;;;;;;;61.83;23.87;;;4.40;99.90;;;;;;5033969;28;20227;-48
2022/01/16 09:55:41;;;;;;;54.63;24.23;;;4.40;99.90;;;;;;5010908;28;20209;-46
2022/01/16 09:58:09;;;;;;;56.50;24.27;;;4.40;99.90;;;;;;5023791;28;20208;-47
2022/01/16 10:00:36;;;;;;;55.83;23.57;;;4.40;99.90;;;;;;5031670;28;20205;-46
2022/01/16 10:03:05;;;;;;;57.70;23.97;;;4.40;99.90;;;;;;5021834;28;20220;-46
2022/01/16 10:05:34;;;;;;;55.67;23.33;;;4.50;99.90;;;;;;5017488;28;20701;-46
2022/01/16 10:08:03;;;;;;;53.87;23.50;;;4.40;99.90;;;;;;5017187;28;21775;-47
2022/01/16 10:10:32;;;;;;;62.30;22.97;;;4.50;99.90;;;;;;5002764;28;20209;-47
2022/01/16 10:13:06;;;;;;;54.33;22.80;;;4.50;99.90;;;;;;4988411;28;20229;-46
2022/01/16 10:15:35;;;;;;;59.20;23.60;;;4.50;99.90;;;;;;5035470;28;20196;-46
2022/01/16 10:18:06;;;;;;;56.17;24.17;;;4.50;99.90;;;;;;5004141;28;20239;-46
2022/01/16 10:20:42;;;;;;;56.90;24.13;;;4.60;99.90;;;;;;5011027;28;20218;-47
2022/01/16 10:23:18;;;;;;;64.03;24.40;;;4.60;99.90;;;;;;5019944;28;20220;-48
2022/01/16 10:25:47;;;;;;;64.87;23.50;;;4.60;99.90;;;;;;5005192;28;20212;-47
2022/01/16 10:28:17;;;;;;;59.43;24.47;;;4.60;99.90;;;;;;5008145;28;20199;-47
2022/01/16 10:30:47;;;;;;;57.13;24.47;;;4.60;99.90;;;;;;5033382;28;20571;-47
2022/01/16 10:33:16;;;;;;;58.47;24.77;;;4.60;99.90;;;;;;5011568;28;20934;-47
2022/01/16 10:35:47;;;;;;;57.30;23.97;;;4.60;99.90;;;;;;5014993;28;20209;-47
2022/01/16 10:38:19;;;;;;;58.23;24.20;;;4.70;99.90;;;;;;5008580;28;21490;-47
2022/01/16 10:40:50;;;;;;;59.97;23.83;;;4.70;99.90;;;;;;5025049;28;20212;-47
2022/01/16 10:43:18;;;;;;;67.50;24.00;;;4.70;99.90;;;;;;5008145;28;20243;-47
2022/01/16 10:45:47;;;;;;;61.90;24.83;;;4.70;99.90;;;;;;5029777;28;20247;-46
2022/01/16 10:48:15;;;;;;;59.90;23.77;;;4.70;99.90;;;;;;5011367;28;20216;-47
2022/01/16 10:50:44;;;;;;;58.73;24.53;;;5.00;99.90;;;;;;5015776;28;20244;-47
2022/01/16 10:53:13;;;;;;;60.47;26.33;;;4.90;99.90;;;;;;5007570;28;20871;-47
2022/01/16 10:55:44;;;;;;;55.73;23.83;;;4.80;99.90;;;;;;5017364;28;20205;-47
2022/01/16 10:58:12;;;;;;;60.30;24.60;;;4.90;99.90;;;;;;4991423;28;20387;-46
2022/01/16 11:00:42;;;;;;;58.50;26.20;;;4.90;99.90;;;;;;5022710;28;20212;-47
2022/01/16 11:03:12;;;;;;;57.03;24.80;;;4.90;99.90;;;;;;5017158;28;24992;-47
2022/01/16 11:05:41;;;;;;;62.33;24.93;;;5.00;99.90;;;;;;5035928;28;20267;-46
2022/01/16 11:08:11;;;;;;;66.17;25.47;;;4.90;99.90;;;;;;5014440;28;20216;-47
2022/01/16 11:10:40;;;;;;;58.93;24.63;;;4.90;99.90;;;;;;5011615;28;20209;-47
2022/01/16 11:13:09;;;;;;;51.63;24.60;;;4.90;99.90;;;;;;5003726;28;20239;-47
2022/01/16 11:15:38;;;;;;;62.50;24.50;;;5.00;99.90;;;;;;5012521;28;20312;-46
2022/01/16 11:18:06;;;;;;;57.60;25.13;;;5.00;99.90;;;;;;5032664;28;20867;-46
2022/01/16 11:20:35;;;;;;;53.67;26.00;;;5.00;99.90;;;;;;5024436;28;20218;-46
2022/01/16 11:23:15;;;;;;;57.93;24.70;;;5.10;99.90;;;;;;5002960;28;20315;-47
2022/01/16 11:25:43;;;;;;;54.13;24.13;;;5.10;99.90;;;;;;5034737;28;20215;-46
2022/01/16 11:28:14;;;;;;;62.73;26.17;;;5.10;99.90;;;;;;5011341;28;20216;-47
2022/01/16 11:30:44;;;;;;;55.57;25.53;;;5.10;99.90;;;;;;5019405;28;20265;-47
2022/01/16 11:33:12;;;;;;;57.03;24.27;;;5.20;99.90;;;;;;5002512;28;20227;-47
2022/01/16 11:35:46;;;;;;;56.93;25.00;;;5.20;99.90;;;;;;5018848;28;20212;-47
2022/01/16 11:38:13;;;;;;;66.93;25.60;;;5.20;99.90;;;;;;5023311;28;20583;-47
2022/01/16 11:40:48;;;;;;;49.90;24.47;;;5.30;99.90;;;;;;5022528;28;20216;-47
2022/01/16 11:43:24;;;;;;;59.47;25.97;;;5.30;99.90;;;;;;5022248;28;20216;-47
2022/01/16 11:46:05;;;;;;;66.03;25.63;;;5.40;99.90;;;;;;5012256;28;21216;-47
2022/01/16 11:48:40;;;;;;;53.97;24.33;;;5.40;99.90;;;;;;5005551;28;20220;-47
2022/01/16 11:52:05;;;;;;;54.93;24.43;;;5.40;99.90;;;;;;5024079;28;20201;-47
2022/01/16 11:54:38;;;;;;;54.67;23.80;;;5.40;99.90;;;;;;4976210;28;20219;-47
2022/01/16 11:57:31;;;;;;;53.63;24.27;;;5.40;99.90;;;;;;5019617;28;20200;-47
2022/01/16 12:00:09;;;;;;;52.93;22.83;;;5.50;99.90;;;;;;5018186;28;20244;-47
2022/01/16 12:02:39;;;;;;;46.53;22.40;;;5.60;99.90;;;;;;5026371;28;20730;-47
2022/01/16 12:05:08;;;;;;;60.20;24.20;;;5.60;99.90;;;;;;5021519;28;20204;-47
2022/01/16 12:07:50;;;;;;;49.63;24.07;;;5.70;99.90;;;;;;5019265;28;20205;-47
2022/01/16 12:10:57;;;;;;;50.77;23.57;;;5.70;99.90;;;;;;5010698;28;20207;-48
2022/01/16 12:13:50;;;;;;;54.33;23.10;;;5.70;99.90;;;;;;5004945;28;20232;-51
2022/01/16 12:16:47;;;;;;;56.13;22.93;;;5.70;99.90;;;;;;5022931;28;20212;-47
2022/01/16 12:19:42;;;;;;;56.70;22.53;;;5.80;99.90;;;;;;5031821;28;20244;-51
2022/01/16 12:22:10;;;;;;;51.40;23.20;;;5.90;99.90;;;;;;5040272;28;20342;-52
2022/01/16 12:24:41;;;;;;;46.40;22.23;;;5.90;99.90;;;;;;5023625;28;20202;-52
2022/01/16 12:27:45;;;;;;;51.93;23.33;;;5.90;99.90;;;;;;5013364;28;20224;-50
2022/01/16 12:30:33;;;;;;;51.17;21.67;;;5.90;99.90;;;;;;5020687;28;20205;-51
2022/01/16 12:33:09;;;;;;;50.90;23.47;;;6.00;99.90;;;;;;5028032;28;20232;-51
2022/01/16 12:36:14;;;;;;;54.67;23.97;;;6.00;99.90;;;;;;5013666;28;20213;-51
2022/01/16 12:39:03;;;;;;;52.53;23.43;;;6.00;99.90;;;;;;5033368;28;20228;-52
2022/01/16 12:41:35;;;;;;;47.60;21.97;;;6.00;99.90;;;;;;5009260;28;21409;-52
2022/01/16 12:44:05;;;;;;;43.10;22.63;;;6.00;99.90;;;;;;5028611;28;20217;-51
2022/01/16 12:46:37;;;;;;;46.67;22.13;;;6.00;99.90;;;;;;5000767;28;20400;-51
2022/01/16 12:49:06;;;;;;;45.10;23.33;;;6.10;99.90;;;;;;5040557;28;20205;-51
2022/01/16 12:51:36;;;;;;;60.97;25.30;;;6.10;99.90;;;;;;5021070;28;20834;-51
2022/01/16 12:54:07;;;;;;;45.97;22.67;;;6.10;99.90;;;;;;5027236;28;20205;-51
2022/01/16 12:56:38;;;;;;;48.77;23.43;;;6.10;99.90;;;;;;5004202;28;20286;-51
2022/01/16 12:59:13;;;;;;;46.93;24.30;;;6.10;99.90;;;;;;5022279;28;20224;-49
2022/01/16 13:01:46;;;;;;;48.27;23.30;;;6.10;99.90;;;;;;5008732;28;20208;-52
2022/01/16 13:04:35;;;;;;;47.27;23.53;;;6.10;99.90;;;;;;5018150;28;20206;-51
2022/01/16 13:07:03;;;;;;;47.57;23.03;;;6.20;99.90;;;;;;5024882;28;21914;-51
2022/01/16 13:09:31;;;;;;;47.33;22.70;;;6.20;99.90;;;;;;5016234;28;20883;-52
2022/01/16 13:12:01;;;;;;;42.17;22.50;;;6.30;99.90;;;;;;5025297;28;20224;-51
2022/01/16 13:14:30;;;;;;;40.47;21.50;;;6.30;99.90;;;;;;5014323;28;20208;-51
2022/01/16 13:17:00;;;;;;;50.20;21.43;;;6.40;99.90;;;;;;5029744;28;20216;-52
2022/01/16 13:19:28;;;;;;;40.93;21.60;;;6.30;99.90;;;;;;5040929;28;20196;-51
2022/01/16 13:22:11;;;;;;;46.07;23.00;;;6.30;99.90;;;;;;5033143;28;20368;-51
2022/01/16 13:24:41;;;;;;;44.20;21.63;;;6.30;99.90;;;;;;5028808;28;20205;-51
2022/01/16 13:27:12;;;;;;;40.70;21.27;;;6.30;99.90;;;;;;5042114;28;20287;-51